createdAt,value
2019-05-15T00:00:03.343Z,2.70
2019-05-15T00:02:48.071Z,3.55
2019-05-15T00:05:29.196Z,6.53
2019-05-15T00:08:09.884Z,7.35
2019-05-15T00:10:50.033Z,11.00
2019-05-15T00:13:30.583Z,4.85
2019-05-15T00:16:10.532Z,4.85
2019-05-15T00:18:50.678Z,5.50
2019-05-15T00:21:31.149Z,6.50
2019-05-15T00:24:13.138Z,3.77
2019-05-15T00:26:53.573Z,3.05
2019-05-15T00:29:33.674Z,3.02
2019-05-15T00:32:14.034Z,3.67
2019-05-15T00:34:54.193Z,3.10
2019-05-15T00:37:35.424Z,3.98
2019-05-15T00:43:38.659Z,6.37
2019-05-15T00:46:05.869Z,6.00
2019-05-15T00:48:53.041Z,5.45
2019-05-15T00:51:33.714Z,4.90
2019-05-15T00:54:14.714Z,4.37
2019-05-15T00:56:54.392Z,6.33
2019-05-15T00:59:34.897Z,4.95
2019-05-15T01:02:17.851Z,4.78
2019-05-15T01:04:58.581Z,3.75
2019-05-15T01:07:40.463Z,4.58
2019-05-15T01:10:21.840Z,4.67
2019-05-15T01:13:02.267Z,4.10
2019-05-15T01:15:42.178Z,3.15
2019-05-15T03:24:05.106Z,6.25
2019-05-15T03:26:45.019Z,6.50
2019-05-15T03:29:25.001Z,5.53
2019-05-15T03:32:17.967Z,5.10
2019-05-15T03:34:55.754Z,3.83
2019-05-15T03:37:33.146Z,6.42
2019-05-15T03:40:12.339Z,5.55
2019-05-15T03:42:53.903Z,5.10
2019-05-15T03:45:34.229Z,5.12
2019-05-15T03:48:14.263Z,5.20
2019-05-15T03:50:54.755Z,4.80
2019-05-15T03:53:22.645Z,4.42
2019-05-15T03:56:09.844Z,4.67
2019-05-15T03:58:59.726Z,4.65
2019-05-15T04:01:43.673Z,3.15
2019-05-15T04:04:22.027Z,3.52
2019-05-15T04:07:02.298Z,3.72
2019-05-15T04:09:42.838Z,4.00
2019-05-15T04:12:23.434Z,4.10
2019-05-15T04:15:03.087Z,4.30
2019-05-15T04:17:43.506Z,4.03
2019-05-15T04:20:23.706Z,4.63
2019-05-15T04:23:04.027Z,5.67
2019-05-15T04:25:43.782Z,5.70
2019-05-15T04:28:29.229Z,4.37
2019-05-15T04:31:09.552Z,3.27
2019-05-15T04:33:51.695Z,3.60
2019-05-15T04:36:32.000Z,3.83
2019-05-15T04:39:12.273Z,3.97
2019-05-15T04:41:52.236Z,3.77
2019-05-15T04:44:20.315Z,3.63
2019-05-15T04:47:09.646Z,2.87
2019-05-15T04:49:59.008Z,2.67
2019-05-15T04:52:43.429Z,2.93
2019-05-15T04:55:22.259Z,2.63
2019-05-15T04:58:02.307Z,3.00
2019-05-15T05:00:42.534Z,2.73
2019-05-15T05:03:22.502Z,2.50
2019-05-15T05:06:02.540Z,2.60
2019-05-15T05:08:42.965Z,2.10
2019-05-15T05:11:24.059Z,2.27
2019-05-15T05:14:04.899Z,5.87
2019-05-15T05:16:45.201Z,9.87
2019-05-15T05:19:25.204Z,4.30
2019-05-15T05:21:52.308Z,2.60
2019-05-15T05:24:20.572Z,1.90
2019-05-15T05:27:22.734Z,2.23
2019-05-15T05:30:03.033Z,2.33
2019-05-15T05:32:42.733Z,2.83
2019-05-15T05:35:23.472Z,2.47
2019-05-15T05:38:03.174Z,2.13
2019-05-15T05:40:43.325Z,2.37
2019-05-15T05:43:23.291Z,2.57
2019-05-15T05:46:03.098Z,2.50
2019-05-15T05:48:43.860Z,2.50
2019-05-15T05:51:23.673Z,2.30
2019-05-15T05:54:04.934Z,2.40
2019-05-15T05:56:44.556Z,2.17
2019-05-15T05:59:24.990Z,1.87
2019-05-15T06:02:07.971Z,2.13
2019-05-15T06:04:47.972Z,1.82
2019-05-15T06:07:28.054Z,2.37
2019-05-15T06:10:08.823Z,2.25
2019-05-15T06:12:49.649Z,2.27
2019-05-15T06:15:29.629Z,1.98
2019-05-15T06:18:09.458Z,2.60
2019-05-15T06:20:50.183Z,2.10
2019-05-15T06:23:35.225Z,2.33
2019-05-15T06:26:13.278Z,2.30
2019-05-15T06:28:53.682Z,2.10
2019-05-15T06:31:33.309Z,1.93
2019-05-15T06:34:13.872Z,2.30
2019-05-15T06:36:53.848Z,2.00
2019-05-15T06:39:33.973Z,2.60
2019-05-15T06:42:14.553Z,2.50
2019-05-15T06:44:54.340Z,1.90
2019-05-15T06:47:34.567Z,2.30
2019-05-15T06:50:15.012Z,2.42
2019-05-15T06:52:55.472Z,2.03
2019-05-15T06:55:35.846Z,2.30
2019-05-15T06:58:15.325Z,1.90
2019-05-15T07:00:55.686Z,2.40
2019-05-15T07:03:35.777Z,1.90
2019-05-15T07:06:17.969Z,2.13
2019-05-15T07:08:58.638Z,2.30
2019-05-15T07:11:39.353Z,2.00
2019-05-15T07:14:19.685Z,1.80
2019-05-15T07:16:59.573Z,1.80
2019-05-15T07:19:39.544Z,2.37
2019-05-15T07:22:19.968Z,2.20
2019-05-15T07:24:59.549Z,1.93
2019-05-15T07:27:39.639Z,1.73
2019-05-15T07:30:20.469Z,2.00
2019-05-15T07:33:01.310Z,1.93
2019-05-15T07:35:41.277Z,2.03
2019-05-15T07:38:20.954Z,1.40
2019-05-15T07:41:04.299Z,2.57
2019-05-15T07:43:43.013Z,3.20
2019-05-15T07:46:24.241Z,3.73
2019-05-15T07:49:04.667Z,2.80
2019-05-15T07:51:44.414Z,2.27
2019-05-15T07:54:24.802Z,4.40
2019-05-15T07:57:04.849Z,4.83
2019-05-15T07:59:48.058Z,3.90
2019-05-15T08:02:28.502Z,4.00
2019-05-15T08:05:08.586Z,2.40
2019-05-15T08:07:49.303Z,1.80
2019-05-15T08:10:30.792Z,3.50
2019-05-15T08:13:10.673Z,3.57
2019-05-15T08:15:50.756Z,4.20
2019-05-15T08:18:30.862Z,3.30
2019-05-15T08:21:10.889Z,3.90
2019-05-15T08:23:52.795Z,4.43
2019-05-15T08:26:32.489Z,2.67
2019-05-15T08:29:13.666Z,1.97
2019-05-15T08:31:53.340Z,1.83
2019-05-15T08:34:33.665Z,1.97
2019-05-15T08:37:13.635Z,2.87
2019-05-15T08:39:53.290Z,2.90
2019-05-15T08:42:33.474Z,2.67
2019-05-15T08:45:13.615Z,2.30
2019-05-15T08:47:41.088Z,2.33
2019-05-15T08:50:28.773Z,2.40
2019-05-15T08:53:15.642Z,2.33
2019-05-15T08:55:55.985Z,3.23
2019-05-15T08:58:38.204Z,2.50
2019-05-15T09:01:18.422Z,2.57
2019-05-15T09:03:58.598Z,1.90
2019-05-15T09:06:41.300Z,1.60
2019-05-15T09:09:20.377Z,2.50
2019-05-15T09:12:00.183Z,3.10
2019-05-15T09:14:40.394Z,2.17
2019-05-15T09:17:20.441Z,2.20
2019-05-15T09:20:00.553Z,2.40
2019-05-15T09:22:40.274Z,2.60
2019-05-15T09:25:20.825Z,2.60
2019-05-15T09:28:00.926Z,2.70
2019-05-15T09:30:41.076Z,2.13
2019-05-15T09:33:21.571Z,2.47
2019-05-15T09:36:01.329Z,2.10
2019-05-15T09:38:41.136Z,2.40
2019-05-15T09:41:21.093Z,2.80
2019-05-15T09:44:00.974Z,1.93
2019-05-15T09:46:41.218Z,2.20
2019-05-15T09:49:21.150Z,2.83
2019-05-15T09:52:01.261Z,2.30
2019-05-15T09:54:41.386Z,2.10
2019-05-15T09:57:21.118Z,2.20
2019-05-15T10:00:01.138Z,3.90
2019-05-15T10:02:41.790Z,2.13
2019-05-15T10:05:21.434Z,3.00
2019-05-15T10:08:01.456Z,3.43
2019-05-15T10:10:41.804Z,2.03
2019-05-15T10:13:21.933Z,2.57
2019-05-15T10:16:02.153Z,3.40
2019-05-15T10:18:30.485Z,1.93
2019-05-15T10:21:18.582Z,2.70
2019-05-15T10:24:10.000Z,2.77
2019-05-15T10:26:50.078Z,2.40
2019-05-15T10:29:30.089Z,2.23
2019-05-15T10:32:10.573Z,2.07
2019-05-15T10:34:51.218Z,2.50
2019-05-15T10:37:31.094Z,2.40
2019-05-15T10:40:11.024Z,2.63
2019-05-15T10:42:51.478Z,2.67
2019-05-15T10:45:30.995Z,2.73
2019-05-15T10:48:11.549Z,2.40
2019-05-15T10:50:50.990Z,3.73
2019-05-15T10:53:31.845Z,2.50
2019-05-15T10:56:11.851Z,3.33
2019-05-15T10:58:51.511Z,2.10
2019-05-15T11:01:31.514Z,2.67
2019-05-15T11:04:11.871Z,4.10
2019-05-15T11:06:52.801Z,2.27
2019-05-15T11:09:33.162Z,2.23
2019-05-15T11:12:12.581Z,1.93
2019-05-15T11:14:52.793Z,1.90
2019-05-15T11:17:32.584Z,2.20
2019-05-15T11:20:13.320Z,2.33
2019-05-15T11:22:53.955Z,2.10
2019-05-15T11:25:33.838Z,2.80
2019-05-15T11:28:01.601Z,2.80
2019-05-15T11:30:49.383Z,3.50
2019-05-15T11:33:38.441Z,2.00
2019-05-15T11:36:18.664Z,2.13
2019-05-15T11:38:58.630Z,2.43
2019-05-15T11:41:39.011Z,2.57
2019-05-15T11:44:19.901Z,2.53
2019-05-15T11:46:59.550Z,2.40
2019-05-15T11:49:40.154Z,2.90
2019-05-15T11:52:19.968Z,2.53
2019-05-15T11:55:00.098Z,2.00
2019-05-15T11:57:46.857Z,2.10
2019-05-15T12:00:27.175Z,2.47
2019-05-15T12:03:04.310Z,2.00
2019-05-15T12:05:44.638Z,1.90
2019-05-15T12:08:24.463Z,1.90
2019-05-15T12:11:04.676Z,1.60
2019-05-15T12:13:45.063Z,2.37
2019-05-15T12:16:28.792Z,1.93
2019-05-15T12:19:09.619Z,1.57
2019-05-15T12:21:51.125Z,1.80
2019-05-15T12:24:35.158Z,1.70
2019-05-15T12:29:55.111Z,1.80
2019-05-15T12:32:36.732Z,1.63
2019-05-15T12:35:20.483Z,1.50
2019-05-15T12:37:59.464Z,1.60
2019-05-15T12:59:45.965Z,1.57
2019-05-15T13:02:27.912Z,1.90
2019-05-15T13:04:55.511Z,2.07
2019-05-15T13:07:43.024Z,1.70
2019-05-15T13:10:23.610Z,1.87
2019-05-15T13:13:05.726Z,1.80
2019-05-15T13:15:48.252Z,1.40
2019-05-15T13:18:28.742Z,2.43
2019-05-15T13:21:08.865Z,1.97
2019-05-15T13:23:49.622Z,1.77
2019-05-15T13:26:23.864Z,2.07
2019-05-15T13:29:12.350Z,4.40
2019-05-15T13:31:52.481Z,4.23
2019-05-15T13:34:32.675Z,2.07
2019-05-15T13:37:25.199Z,1.50
2019-05-15T13:39:58.556Z,1.83
2019-05-15T13:42:40.163Z,2.00
2019-05-15T13:45:19.993Z,1.90
2019-05-15T13:48:00.589Z,2.20
2019-05-15T13:50:40.807Z,2.47
2019-05-15T13:53:21.757Z,1.87
2019-05-15T13:56:01.458Z,2.43
2019-05-15T13:58:41.625Z,1.90
2019-05-15T14:01:21.965Z,1.30
2019-05-15T14:04:02.200Z,2.00
2019-05-15T14:06:42.079Z,1.93
2019-05-15T14:09:23.343Z,2.23
2019-05-15T14:12:03.785Z,2.80
2019-05-15T14:14:44.706Z,2.07
2019-05-15T14:17:14.265Z,1.67
2019-05-15T14:19:42.057Z,1.63
2019-05-15T14:22:22.124Z,1.50
2019-05-15T14:25:02.848Z,2.10
2019-05-15T14:27:43.518Z,2.37
2019-05-15T14:30:23.813Z,1.50
2019-05-15T14:33:04.249Z,2.10
2019-05-15T14:35:44.217Z,3.30
2019-05-15T14:38:24.822Z,1.40
2019-05-15T14:41:04.954Z,2.40
2019-05-15T14:43:48.328Z,1.83
2019-05-15T14:46:27.811Z,1.90
2019-05-15T14:48:55.266Z,2.00
2019-05-15T14:51:24.271Z,1.40
2019-05-15T14:54:04.193Z,1.40
2019-05-15T14:56:44.683Z,1.13
2019-05-15T14:59:25.869Z,1.53
2019-05-15T15:02:05.973Z,1.50
2019-05-15T15:04:48.392Z,1.70
2019-05-15T15:07:28.379Z,1.93
2019-05-15T15:10:09.541Z,1.50
2019-05-15T15:12:50.202Z,1.50
2019-05-15T15:15:30.811Z,1.37
2019-05-15T15:18:11.309Z,1.60
2019-05-15T15:20:53.845Z,1.40
2019-05-15T15:23:33.848Z,1.30
2019-05-15T15:26:14.136Z,1.20
2019-05-15T15:28:55.002Z,1.33
2019-05-15T15:31:39.008Z,1.00
2019-05-15T15:34:20.921Z,1.20
2019-05-15T15:37:03.022Z,1.23
2019-05-15T15:39:43.301Z,1.40
2019-05-15T15:42:24.381Z,1.57
2019-05-15T15:45:04.580Z,1.30
2019-05-15T15:47:45.119Z,1.50
2019-05-15T15:50:25.394Z,2.23
2019-05-15T15:53:05.601Z,2.80
2019-05-15T15:55:45.810Z,2.10
2019-05-15T15:58:25.670Z,1.60
2019-05-15T16:01:05.858Z,1.40
2019-05-15T16:03:33.997Z,1.40
2019-05-15T16:06:20.745Z,1.90
2019-05-15T16:09:00.530Z,1.47
2019-05-15T16:11:40.980Z,1.90
2019-05-15T16:14:20.817Z,4.30
2019-05-15T16:17:01.048Z,3.17
2019-05-15T16:19:41.246Z,6.40
2019-05-15T16:22:21.465Z,2.73
2019-05-15T16:25:02.292Z,3.60
2019-05-15T16:27:42.669Z,1.40
2019-05-15T16:30:22.597Z,2.00
2019-05-15T16:33:02.990Z,1.50
2019-05-15T16:35:43.025Z,1.63
2019-05-15T16:38:23.269Z,1.70
2019-05-15T16:41:03.349Z,1.80
2019-05-15T16:43:43.722Z,1.90
2019-05-15T16:46:24.491Z,1.77
2019-05-15T16:49:05.260Z,1.97
2019-05-15T16:51:45.495Z,1.80
2019-05-15T16:54:25.339Z,1.20
2019-05-15T16:57:05.271Z,1.27
2019-05-15T16:59:45.289Z,1.77
2019-05-15T17:02:25.018Z,1.37
2019-05-15T17:05:05.608Z,2.37
2019-05-15T17:07:45.881Z,1.97
2019-05-15T17:10:28.021Z,1.77
2019-05-15T17:13:08.874Z,2.10
2019-05-15T17:15:49.611Z,3.20
2019-05-15T17:18:18.119Z,2.10
2019-05-15T17:21:12.340Z,2.13
2019-05-15T17:23:52.532Z,3.40
2019-05-15T17:26:32.981Z,5.37
2019-05-15T17:29:13.594Z,2.00
2019-05-15T17:31:42.909Z,2.57
2019-05-15T17:34:29.725Z,4.20
2019-05-15T17:36:58.312Z,1.90
2019-05-15T17:39:52.274Z,3.40
2019-05-15T17:42:32.226Z,4.10
2019-05-15T17:45:12.290Z,5.13
2019-05-15T17:47:52.546Z,3.70
2019-05-15T17:50:44.896Z,3.67
2019-05-15T17:53:15.314Z,5.00
2019-05-15T17:55:44.234Z,2.80
2019-05-15T17:58:32.422Z,3.70
2019-05-15T18:01:12.945Z,3.40
2019-05-15T18:03:53.273Z,3.67
2019-05-15T18:06:33.881Z,3.50
2019-05-15T18:09:14.344Z,3.53
2019-05-15T18:11:54.291Z,2.57
2019-05-15T18:14:34.585Z,2.80
2019-05-15T18:17:01.975Z,2.57
2019-05-15T18:19:29.396Z,2.10
2019-05-15T18:21:59.269Z,1.77
2019-05-15T18:24:53.261Z,1.93
2019-05-15T18:27:33.490Z,4.37
2019-05-15T18:30:14.012Z,6.30
2019-05-15T18:32:42.802Z,4.90
2019-05-15T18:35:10.766Z,2.60
2019-05-15T18:37:50.980Z,3.60
2019-05-15T18:40:38.520Z,3.00
2019-05-15T18:43:35.069Z,3.30
2019-05-15T18:46:18.342Z,5.47
2019-05-15T18:48:58.579Z,4.90
2019-05-15T18:51:38.573Z,3.60
2019-05-15T18:54:08.013Z,2.37
2019-05-15T18:57:16.029Z,3.17
2019-05-15T18:59:44.101Z,2.90
2019-05-15T19:02:31.201Z,2.70
2019-05-15T19:04:58.842Z,2.93
2019-05-15T19:07:45.652Z,2.30
2019-05-15T19:10:28.201Z,2.70
2019-05-15T19:13:09.249Z,2.80
2019-05-15T19:15:50.463Z,3.03
2019-05-15T19:18:30.165Z,2.40
2019-05-15T19:20:58.750Z,2.90
2019-05-15T19:24:07.784Z,1.73
2019-05-15T19:26:35.413Z,3.57
2019-05-15T19:29:17.952Z,3.03
2019-05-15T19:31:58.282Z,2.77
2019-05-15T19:34:38.886Z,2.57
2019-05-15T19:37:20.100Z,4.50
2019-05-15T19:39:59.738Z,3.80
2019-05-15T19:42:40.316Z,2.00
2019-05-15T19:45:20.413Z,2.87
2019-05-15T19:48:00.663Z,2.87
2019-05-15T19:50:40.866Z,2.50
2019-05-15T19:53:20.834Z,3.47
2019-05-15T19:56:01.026Z,2.40
2019-05-15T19:58:41.042Z,2.60
2019-05-15T20:01:22.107Z,1.93
2019-05-15T20:04:02.178Z,1.83
2019-05-15T20:06:42.832Z,2.20
2019-05-15T20:09:23.030Z,1.93
2019-05-15T20:12:02.821Z,2.13
2019-05-15T20:14:43.042Z,2.00
2019-05-15T20:17:23.149Z,1.97
2019-05-15T20:20:03.516Z,2.03
2019-05-15T20:22:43.517Z,2.60
2019-05-15T20:25:23.833Z,2.97
2019-05-15T20:28:04.194Z,3.33
2019-05-15T20:30:32.141Z,2.00
2019-05-15T20:33:19.138Z,2.70
2019-05-15T20:35:59.966Z,2.10
2019-05-15T20:38:39.871Z,2.10
2019-05-15T20:41:20.082Z,2.20
2019-05-15T20:44:00.107Z,2.00
2019-05-15T20:52:39.628Z,1.63
2019-05-15T20:55:20.238Z,1.80
2019-05-15T20:58:01.145Z,2.00
2019-05-15T21:00:29.732Z,1.63
2019-05-15T21:03:17.983Z,1.60
2019-05-15T21:06:09.183Z,1.90
2019-05-15T21:08:48.906Z,2.37
2019-05-15T21:11:29.454Z,1.40
2019-05-15T21:14:09.009Z,1.47
2019-05-15T21:16:36.213Z,2.17
2019-05-15T21:19:23.095Z,1.93
2019-05-15T21:22:04.157Z,1.70
2019-05-15T21:24:31.697Z,1.80
2019-05-15T21:27:23.823Z,1.80
2019-05-15T21:30:20.435Z,1.80
2019-05-15T21:33:00.799Z,1.67
2019-05-15T21:35:41.444Z,1.93
2019-05-15T21:38:21.506Z,1.90
2019-05-15T21:41:01.358Z,1.70
2019-05-15T21:43:41.881Z,1.80
2019-05-15T21:46:22.069Z,1.80
2019-05-15T21:49:03.041Z,1.90
2019-05-15T21:51:43.266Z,2.10
2019-05-15T21:54:23.706Z,2.20
2019-05-15T21:57:18.609Z,2.23
2019-05-15T21:59:47.141Z,2.20
2019-05-15T22:02:29.215Z,1.73
2019-05-15T22:05:10.074Z,1.87
2019-05-15T22:07:51.151Z,1.90
2019-05-15T22:10:31.005Z,2.20
2019-05-15T22:13:11.321Z,2.00
2019-05-15T22:15:51.225Z,2.10
2019-05-15T22:18:31.506Z,2.70
2019-05-15T22:21:11.628Z,2.40
2019-05-15T22:23:51.733Z,4.20
2019-05-15T22:26:32.130Z,2.03
2019-05-15T22:29:12.402Z,2.80
2019-05-15T22:31:51.950Z,2.90
2019-05-15T22:34:32.285Z,3.80
2019-05-15T22:37:12.361Z,3.20
2019-05-15T22:39:52.779Z,3.47
2019-05-15T22:42:32.446Z,2.87
2019-05-15T22:45:12.227Z,3.00
2019-05-15T22:47:52.913Z,2.70
2019-05-15T22:50:32.693Z,3.30
2019-05-15T22:53:13.071Z,4.80
2019-05-15T22:55:52.864Z,5.80
2019-05-15T22:58:33.233Z,5.33
2019-05-15T23:01:12.838Z,4.43
2019-05-15T23:03:53.464Z,4.47
2019-05-15T23:06:33.313Z,3.40
2019-05-15T23:09:13.633Z,3.77
2019-05-15T23:11:53.341Z,2.80
2019-05-15T23:14:33.189Z,2.83
2019-05-15T23:17:13.684Z,2.60
2019-05-15T23:19:53.600Z,3.10
2019-05-15T23:22:34.076Z,2.60
2019-05-15T23:25:14.157Z,2.80
2019-05-15T23:27:54.790Z,3.20
2019-05-15T23:30:35.514Z,4.67
2019-05-15T23:33:15.830Z,4.73
2019-05-15T23:35:55.993Z,3.87
2019-05-15T23:38:38.334Z,3.77
2019-05-15T23:41:19.036Z,2.70
2019-05-15T23:43:59.461Z,3.00
2019-05-15T23:46:39.634Z,2.43
2019-05-15T23:49:20.069Z,2.50
2019-05-15T23:52:00.050Z,2.10
2019-05-15T23:54:40.529Z,2.77
2019-05-15T23:57:20.421Z,2.43
